createdAt,value
2023-01-05T00:03:38.139Z,24.08
2023-01-05T00:08:43.291Z,25.10
2023-01-05T00:14:02.972Z,25.58
2023-01-05T00:19:30.452Z,23.63
2023-01-05T00:24:37.115Z,24.20
2023-01-05T00:29:44.521Z,26.85
2023-01-05T00:34:49.314Z,27.52
2023-01-05T00:39:56.570Z,26.63
2023-01-05T00:45:03.936Z,25.77
2023-01-05T00:50:10.093Z,26.80
2023-01-05T00:55:14.953Z,24.92
2023-01-05T01:00:22.600Z,24.30
2023-01-05T01:05:27.398Z,25.30
2023-01-05T01:10:32.090Z,24.23
2023-01-05T01:15:39.688Z,23.23
2023-01-05T01:20:44.657Z,21.77
2023-01-05T01:25:49.321Z,21.10
2023-01-05T01:30:56.658Z,20.35
2023-01-05T01:36:01.631Z,20.52
2023-01-05T01:41:06.377Z,19.77
2023-01-05T01:46:14.467Z,18.00
2023-01-05T01:51:21.641Z,18.35
2023-01-05T01:56:27.549Z,18.02
2023-01-05T02:01:36.990Z,15.48
2023-01-05T02:06:42.500Z,16.77
2023-01-05T02:11:50.376Z,15.38
2023-01-05T02:17:01.798Z,18.02
2023-01-05T02:22:15.512Z,17.48
2023-01-05T02:27:40.737Z,18.02
2023-01-05T02:32:51.400Z,19.08
2023-01-05T02:37:59.279Z,20.40
2023-01-05T02:43:04.135Z,18.58
2023-01-05T02:48:11.734Z,18.20
2023-01-05T02:53:18.543Z,20.00
2023-01-05T02:58:26.075Z,19.55
2023-01-05T03:03:37.003Z,19.13
2023-01-05T03:08:44.091Z,19.58
2023-01-05T03:13:50.868Z,18.02
2023-01-05T03:19:11.091Z,17.48
2023-01-05T03:24:28.182Z,18.73
2023-01-05T03:29:45.278Z,18.05
2023-01-05T03:35:06.388Z,16.60
2023-01-05T03:40:15.059Z,16.90
2023-01-05T03:45:21.190Z,16.35
2023-01-05T03:50:28.877Z,17.95
2023-01-05T03:55:33.648Z,17.58
2023-01-05T04:00:38.369Z,16.77
2023-01-05T04:05:45.753Z,17.80
2023-01-05T04:10:50.494Z,17.92
2023-01-05T04:15:55.359Z,18.50
2023-01-05T04:21:02.989Z,19.02
2023-01-05T04:26:08.194Z,20.15
2023-01-05T04:31:12.938Z,18.55
2023-01-05T04:36:20.413Z,21.38
2023-01-05T04:41:25.084Z,20.17
2023-01-05T04:46:29.866Z,20.73
2023-01-05T04:51:37.246Z,20.10
2023-01-05T04:56:44.651Z,17.77
2023-01-05T05:02:07.681Z,17.73
2023-01-05T05:07:15.108Z,17.30
2023-01-05T05:12:22.543Z,16.88
2023-01-05T05:17:27.267Z,17.83
2023-01-05T05:22:34.533Z,16.33
2023-01-05T05:27:39.208Z,18.55
2023-01-05T05:32:44.583Z,17.15
2023-01-05T05:37:56.407Z,15.32
2023-01-05T05:43:01.644Z,17.23
2023-01-05T05:48:06.597Z,17.35
2023-01-05T05:53:14.026Z,16.50
2023-01-05T05:58:18.788Z,16.38
2023-01-05T06:03:23.597Z,16.30
2023-01-05T06:08:30.978Z,17.40
2023-01-05T06:13:35.690Z,17.20
2023-01-05T06:18:40.477Z,17.23
2023-01-05T06:23:47.806Z,17.25
2023-01-05T06:28:52.537Z,17.23
2023-01-05T06:33:57.224Z,17.25
2023-01-05T06:39:04.538Z,17.38
2023-01-05T06:44:09.751Z,16.80
2023-01-05T06:49:15.134Z,17.50
2023-01-05T06:54:22.482Z,19.73
2023-01-05T06:59:27.134Z,21.23
2023-01-05T07:04:31.841Z,24.08
2023-01-05T07:09:39.153Z,19.60
2023-01-05T07:14:43.887Z,18.98
2023-01-05T07:19:48.610Z,20.38
2023-01-05T07:24:56.012Z,18.65
2023-01-05T07:30:00.782Z,18.05
2023-01-05T07:35:06.008Z,20.13
2023-01-05T07:40:14.109Z,19.27
2023-01-05T07:45:18.993Z,19.95
2023-01-05T07:50:23.732Z,20.75
2023-01-05T07:55:31.037Z,26.75
2023-01-05T08:00:35.754Z,26.45
2023-01-05T08:05:40.505Z,26.83
2023-01-05T08:10:47.872Z,27.85
2023-01-05T08:15:53.921Z,27.15
2023-01-05T08:20:59.862Z,23.10
2023-01-05T08:26:09.770Z,21.83
2023-01-05T08:31:15.847Z,20.42
2023-01-05T08:36:21.897Z,19.70
2023-01-05T08:41:30.473Z,19.10
2023-01-05T08:46:36.104Z,21.08
2023-01-05T08:51:41.188Z,18.75
2023-01-05T08:56:50.838Z,18.95
2023-01-05T09:01:55.692Z,22.08
2023-01-05T09:07:00.551Z,21.27
2023-01-05T09:12:08.399Z,19.45
2023-01-05T09:17:13.238Z,22.15
2023-01-05T09:22:17.950Z,19.98
2023-01-05T09:27:25.298Z,23.27
2023-01-05T09:32:29.979Z,22.15
2023-01-05T09:37:34.819Z,25.88
2023-01-05T09:42:45.475Z,32.17
2023-01-05T09:47:50.374Z,22.73
2023-01-05T09:52:57.612Z,24.35
2023-01-05T09:58:08.263Z,21.02
2023-01-05T10:03:37.069Z,22.98
2023-01-05T10:08:42.304Z,21.55
2023-01-05T10:13:55.384Z,26.40
2023-01-05T10:19:01.858Z,24.00
2023-01-05T10:24:14.823Z,24.73
2023-01-05T10:29:26.128Z,26.60
2023-01-05T10:34:37.661Z,31.35
2023-01-05T10:39:55.916Z,33.97
2023-01-05T10:45:06.838Z,21.27
2023-01-05T10:55:19.120Z,19.63
2023-01-05T11:00:43.607Z,19.20
2023-01-05T11:05:49.604Z,26.25
2023-01-05T11:10:55.508Z,21.85
2023-01-05T11:16:03.897Z,21.70
2023-01-05T11:21:10.439Z,22.25
2023-01-05T11:26:26.124Z,16.73
2023-01-05T11:31:35.373Z,19.88
2023-01-05T11:36:40.681Z,22.80
2023-01-05T11:41:45.451Z,25.05
2023-01-05T11:46:53.645Z,24.20
2023-01-05T11:51:58.427Z,17.70
2023-01-05T11:57:19.650Z,17.33
2023-01-05T12:02:45.267Z,17.85
2023-01-05T12:07:54.470Z,15.68
2023-01-05T12:13:03.544Z,14.52
2023-01-05T12:18:15.751Z,14.95
2023-01-05T12:23:32.559Z,13.88
2023-01-05T12:28:57.929Z,14.70
2023-01-05T12:34:24.455Z,13.43
2023-01-05T12:39:43.978Z,12.73
2023-01-05T12:45:04.920Z,14.77
2023-01-05T12:50:20.871Z,14.85
2023-01-05T12:55:27.432Z,11.45
2023-01-05T13:00:38.009Z,12.57
2023-01-05T13:05:46.479Z,11.35
2023-01-05T13:10:52.865Z,12.93
2023-01-05T13:16:03.467Z,13.23
2023-01-05T13:21:14.707Z,18.70
2023-01-05T13:26:20.898Z,44.50
2023-01-05T13:31:40.487Z,67.82
2023-01-05T13:36:54.709Z,62.03
2023-01-05T13:42:13.898Z,25.67
2023-01-05T13:47:27.915Z,70.93
2023-01-05T13:52:40.839Z,67.60
2023-01-05T13:57:45.987Z,38.13
2023-01-05T14:02:59.726Z,24.75
2023-01-05T14:08:08.093Z,19.50
2023-01-05T14:13:43.367Z,19.95
2023-01-05T14:18:55.282Z,28.23
2023-01-05T14:24:02.704Z,23.60
2023-01-05T14:29:07.415Z,18.08
2023-01-05T14:34:16.531Z,12.85
2023-01-05T14:39:28.744Z,12.27
2023-01-05T14:44:36.562Z,14.73
2023-01-05T14:49:42.312Z,21.35
2023-01-05T14:55:12.683Z,23.40
2023-01-05T15:00:37.979Z,26.58
2023-01-05T15:05:45.680Z,14.20
2023-01-05T15:11:13.932Z,11.85
2023-01-05T15:16:27.120Z,13.88
2023-01-05T15:21:40.424Z,13.95
2023-01-05T15:26:52.539Z,14.23
2023-01-05T15:32:02.042Z,15.18
2023-01-05T15:37:09.338Z,16.43
2023-01-05T15:42:18.373Z,20.45
2023-01-05T15:47:26.413Z,21.27
2023-01-05T15:52:34.981Z,17.10
2023-01-05T15:57:39.877Z,17.83
2023-01-05T16:02:47.481Z,22.02
2023-01-05T16:07:56.403Z,19.92
2023-01-05T16:13:04.863Z,25.55
2023-01-05T16:18:17.147Z,20.27
2023-01-05T16:23:23.347Z,17.75
2023-01-05T16:28:28.915Z,17.60
2023-01-05T16:33:39.467Z,16.52
2023-01-05T16:38:44.526Z,18.42
2023-01-05T16:43:52.899Z,18.02
2023-01-05T16:49:01.483Z,20.73
2023-01-05T16:54:08.364Z,17.73
2023-01-05T16:59:27.764Z,19.45
2023-01-05T17:04:35.055Z,20.92
2023-01-05T17:09:43.358Z,26.20
2023-01-05T17:14:48.404Z,21.58
2023-01-05T17:19:55.743Z,20.50
2023-01-05T17:30:25.444Z,23.40
2023-01-05T17:35:32.870Z,21.10
2023-01-05T17:40:37.620Z,18.05
2023-01-05T17:45:44.214Z,19.00
2023-01-05T17:50:54.771Z,19.80
2023-01-05T18:01:04.350Z,21.65
2023-01-05T18:06:12.578Z,25.38
2023-01-05T18:11:20.147Z,50.55
2023-01-05T18:16:26.356Z,38.88
2023-01-05T18:21:36.494Z,48.50
2023-01-05T18:26:41.437Z,52.50
2023-01-05T18:31:46.868Z,46.05
2023-01-05T18:37:01.840Z,41.53
2023-01-05T18:42:12.407Z,48.70
2023-01-05T18:47:17.081Z,31.38
2023-01-05T18:52:26.785Z,23.50
2023-01-05T18:57:31.551Z,31.20
2023-01-05T19:02:36.517Z,23.23
2023-01-05T19:07:43.826Z,17.27
2023-01-05T19:12:48.551Z,18.25
2023-01-05T19:17:53.705Z,16.10
2023-01-05T19:23:01.255Z,15.73
2023-01-05T19:28:05.952Z,17.08
2023-01-05T19:33:10.624Z,20.75
2023-01-05T19:38:17.970Z,33.17
2023-01-05T19:43:22.723Z,20.90
2023-01-05T19:48:27.390Z,19.10
2023-01-05T19:53:34.938Z,20.90
2023-01-05T19:58:39.791Z,21.52
2023-01-05T20:03:45.219Z,24.85
2023-01-05T20:08:55.695Z,24.13
2023-01-05T20:14:00.507Z,22.30
2023-01-05T20:19:05.489Z,22.10
2023-01-05T20:24:17.375Z,25.77
2023-01-05T20:29:24.515Z,30.90
2023-01-05T20:34:32.399Z,27.95
2023-01-05T20:39:40.518Z,42.15
2023-01-05T20:44:50.093Z,37.60
2023-01-05T20:49:54.890Z,24.17
2023-01-05T20:55:02.299Z,20.08
2023-01-05T21:00:08.010Z,24.00
2023-01-05T21:05:13.056Z,26.45
2023-01-05T21:10:22.455Z,24.88
2023-01-05T21:15:27.942Z,24.17
2023-01-05T21:20:32.763Z,25.60
2023-01-05T21:26:05.487Z,29.73
2023-01-05T21:36:16.614Z,28.77
2023-01-05T21:41:44.300Z,23.23
2023-01-05T21:46:49.480Z,21.48
2023-01-05T21:52:06.642Z,19.80
2023-01-05T21:57:14.160Z,21.95
2023-01-05T22:02:19.162Z,18.05
2023-01-05T22:07:23.971Z,13.32
2023-01-05T22:12:31.436Z,13.38
2023-01-05T22:17:36.489Z,12.70
2023-01-05T22:22:41.291Z,12.27
2023-01-05T22:27:48.985Z,20.70
2023-01-05T22:32:56.790Z,13.90
2023-01-05T22:38:01.601Z,32.03
2023-01-05T22:43:09.049Z,15.50
2023-01-05T22:48:14.635Z,15.00
2023-01-05T22:53:19.529Z,10.68
2023-01-05T22:58:27.057Z,8.98
2023-01-05T23:03:37.648Z,12.52
2023-01-05T23:08:43.323Z,16.25
2023-01-05T23:13:51.142Z,27.52
2023-01-05T23:18:56.251Z,21.60
2023-01-05T23:24:01.376Z,16.45
2023-01-05T23:29:08.830Z,25.63
2023-01-05T23:34:13.578Z,27.40
2023-01-05T23:39:18.260Z,18.67
2023-01-05T23:44:25.588Z,18.52
2023-01-05T23:49:30.511Z,43.60
2023-01-05T23:54:37.215Z,47.85
2023-01-05T23:59:44.575Z,33.13
